createdAt,value
2023-08-09T00:01:25.871Z,86.45
2023-08-09T00:03:52.498Z,85.97
2023-08-09T00:06:19.115Z,85.84
2023-08-09T00:08:45.610Z,86.04
2023-08-09T00:11:12.392Z,86.57
2023-08-09T00:13:39.042Z,86.42
2023-08-09T00:16:06.350Z,86.11
2023-08-09T00:18:32.941Z,86.20
2023-08-09T00:20:59.439Z,86.13
2023-08-09T00:23:25.967Z,87.01
2023-08-09T00:25:52.568Z,86.05
2023-08-09T00:28:19.079Z,86.04
2023-08-09T00:30:45.631Z,85.60
2023-08-09T00:33:12.138Z,86.14
2023-08-09T00:35:38.697Z,85.45
2023-08-09T00:38:05.184Z,85.92
2023-08-09T00:40:32.440Z,85.25
2023-08-09T00:42:58.874Z,84.95
2023-08-09T00:45:25.482Z,86.20
2023-08-09T00:47:52.606Z,85.66
2023-08-09T00:50:19.176Z,85.78
2023-08-09T00:52:46.281Z,84.96
2023-08-09T00:55:13.353Z,85.42
2023-08-09T00:57:39.984Z,84.89
2023-08-09T01:00:07.229Z,85.09
2023-08-09T01:02:33.850Z,84.64
2023-08-09T01:05:00.654Z,85.10
2023-08-09T01:07:53.641Z,85.13
2023-08-09T01:10:29.919Z,85.04
2023-08-09T01:13:02.550Z,85.00
2023-08-09T01:15:32.249Z,85.03
2023-08-09T01:17:59.112Z,84.43
2023-08-09T01:20:26.966Z,84.93
2023-08-09T01:23:12.712Z,84.70
2023-08-09T01:25:39.802Z,85.34
2023-08-09T01:28:06.459Z,85.29
2023-08-09T01:30:33.097Z,86.41
2023-08-09T01:33:01.096Z,86.58
2023-08-09T01:35:31.604Z,86.66
2023-08-09T01:38:06.893Z,85.89
2023-08-09T01:40:34.419Z,86.10
2023-08-09T01:43:01.236Z,86.02
2023-08-09T01:45:29.616Z,85.81
2023-08-09T01:47:56.351Z,85.98
2023-08-09T01:50:28.155Z,85.32
2023-08-09T01:52:59.288Z,85.64
2023-08-09T01:55:27.415Z,85.87
2023-08-09T01:57:55.178Z,85.33
2023-08-09T02:00:25.416Z,85.04
2023-08-09T02:02:53.735Z,85.36
2023-08-09T02:05:21.257Z,85.02
2023-08-09T02:07:48.776Z,85.53
2023-08-09T02:10:15.958Z,85.39
2023-08-09T02:12:48.030Z,86.37
2023-08-09T02:15:19.930Z,85.97
2023-08-09T02:17:47.348Z,85.99
2023-08-09T02:20:14.219Z,86.10
2023-08-09T02:22:41.692Z,87.17
2023-08-09T02:25:09.301Z,87.11
2023-08-09T02:27:35.910Z,87.55
2023-08-09T02:30:05.977Z,88.06
2023-08-09T02:32:33.433Z,88.25
2023-08-09T02:34:59.936Z,88.73
2023-08-09T02:37:27.156Z,87.79
2023-08-09T02:39:53.861Z,88.08
2023-08-09T02:42:20.428Z,89.32
2023-08-09T02:44:46.952Z,89.71
2023-08-09T02:47:13.484Z,88.89
2023-08-09T02:49:39.930Z,89.22
2023-08-09T02:52:06.578Z,89.29
2023-08-09T02:54:33.038Z,88.91
2023-08-09T02:56:59.862Z,87.97
2023-08-09T02:59:26.555Z,89.28
2023-08-09T03:01:53.225Z,90.13
2023-08-09T03:04:19.698Z,89.82
2023-08-09T03:06:46.224Z,89.13
2023-08-09T03:09:12.687Z,89.35
2023-08-09T03:11:39.158Z,89.63
2023-08-09T03:14:05.862Z,90.64
2023-08-09T03:16:32.532Z,89.47
2023-08-09T03:18:59.091Z,89.43
2023-08-09T03:21:25.569Z,90.14
2023-08-09T03:23:52.009Z,90.38
2023-08-09T03:26:18.597Z,90.55
2023-08-09T03:28:45.196Z,90.83
2023-08-09T03:31:11.910Z,90.63
2023-08-09T03:33:38.411Z,91.36
2023-08-09T03:36:05.400Z,91.32
2023-08-09T03:38:31.842Z,91.56
2023-08-09T03:40:58.384Z,91.87
2023-08-09T03:43:24.900Z,91.08
2023-08-09T03:45:51.548Z,91.78
2023-08-09T03:48:18.079Z,91.87
2023-08-09T03:50:44.551Z,91.76
2023-08-09T03:53:11.054Z,91.58
2023-08-09T03:55:37.610Z,91.83
2023-08-09T03:58:04.291Z,91.35
2023-08-09T04:00:30.801Z,91.57
2023-08-09T04:02:57.793Z,91.22
2023-08-09T04:05:24.856Z,91.14
2023-08-09T04:07:51.555Z,91.42
2023-08-09T04:10:18.216Z,91.25
2023-08-09T04:12:44.836Z,90.73
2023-08-09T04:15:11.408Z,91.15
2023-08-09T04:17:38.016Z,91.34
2023-08-09T04:20:10.144Z,91.20
2023-08-09T04:22:36.959Z,90.93
2023-08-09T04:25:05.111Z,91.26
2023-08-09T04:27:33.188Z,90.96
2023-08-09T04:30:01.665Z,90.91
2023-08-09T04:32:28.325Z,90.90
2023-08-09T04:34:54.868Z,91.11
2023-08-09T04:37:21.554Z,91.42
2023-08-09T04:39:48.082Z,91.00
2023-08-09T04:42:14.855Z,91.14
2023-08-09T04:44:41.392Z,91.26
2023-08-09T04:47:07.923Z,91.29
2023-08-09T04:49:34.341Z,91.20
2023-08-09T04:52:00.724Z,91.33
2023-08-09T04:54:27.184Z,90.89
2023-08-09T04:56:53.742Z,91.49
2023-08-09T04:59:20.299Z,90.38
2023-08-09T05:01:46.765Z,90.91
2023-08-09T05:04:13.309Z,91.23
2023-08-09T05:06:41.270Z,91.63
2023-08-09T05:09:08.080Z,91.31
2023-08-09T05:11:34.556Z,90.17
2023-08-09T05:14:00.990Z,91.00
2023-08-09T05:16:27.635Z,90.56
2023-08-09T05:18:54.223Z,90.79
2023-08-09T05:21:20.817Z,90.59
2023-08-09T05:23:47.624Z,90.69
2023-08-09T05:26:14.168Z,91.33
2023-08-09T05:28:40.638Z,91.62
2023-08-09T05:31:07.198Z,91.10
2023-08-09T05:33:33.706Z,91.32
2023-08-09T05:36:01.168Z,90.88
2023-08-09T05:38:27.910Z,90.34
2023-08-09T05:40:55.629Z,90.61
2023-08-09T05:43:22.100Z,90.58
2023-08-09T05:45:48.655Z,91.28
2023-08-09T05:48:15.283Z,90.70
2023-08-09T05:50:41.889Z,91.05
2023-08-09T05:53:10.921Z,90.84
2023-08-09T05:55:38.161Z,90.27
2023-08-09T05:58:05.205Z,89.68
2023-08-09T06:00:32.025Z,90.25
2023-08-09T06:02:58.840Z,90.04
2023-08-09T06:05:28.211Z,90.84
2023-08-09T06:07:55.038Z,90.97
2023-08-09T06:13:06.286Z,90.82
2023-08-09T06:15:33.064Z,89.74
2023-08-09T06:17:59.611Z,90.22
2023-08-09T06:20:28.993Z,90.00
2023-08-09T06:22:55.768Z,90.32
2023-08-09T06:25:22.460Z,90.75
2023-08-09T06:27:49.039Z,91.12
2023-08-09T06:30:15.628Z,91.17
2023-08-09T06:32:42.294Z,90.46
2023-08-09T06:35:10.648Z,89.70
2023-08-09T06:37:37.610Z,89.92
2023-08-09T06:40:08.020Z,90.11
2023-08-09T06:42:34.761Z,88.03
2023-08-09T06:45:02.060Z,88.67
2023-08-09T06:47:28.841Z,88.77
2023-08-09T06:49:55.512Z,89.33
2023-08-09T06:52:22.029Z,88.71
2023-08-09T06:54:51.482Z,89.32
2023-08-09T06:57:19.975Z,89.40
2023-08-09T06:59:48.444Z,88.63
2023-08-09T07:02:15.792Z,88.39
2023-08-09T07:04:42.508Z,88.94
2023-08-09T07:07:09.326Z,87.96
2023-08-09T07:09:35.927Z,87.32
2023-08-09T07:12:03.118Z,87.83
2023-08-09T07:14:29.660Z,86.97
2023-08-09T07:16:56.190Z,88.17
2023-08-09T07:19:23.041Z,87.33
2023-08-09T07:21:49.690Z,87.70
2023-08-09T07:24:16.219Z,86.98
2023-08-09T07:26:42.774Z,87.29
2023-08-09T07:29:09.834Z,88.41
2023-08-09T07:31:36.680Z,86.10
2023-08-09T07:34:03.351Z,83.92
2023-08-09T07:36:30.090Z,84.53
2023-08-09T07:38:56.804Z,85.73
2023-08-09T07:41:23.349Z,84.42
2023-08-09T07:43:49.934Z,85.67
2023-08-09T07:46:16.630Z,84.61
2023-08-09T07:48:43.204Z,85.80
2023-08-09T07:51:13.143Z,84.80
2023-08-09T07:53:40.577Z,81.44
2023-08-09T07:56:07.240Z,82.94
2023-08-09T07:58:33.784Z,83.68
2023-08-09T08:01:00.352Z,83.42
2023-08-09T08:03:26.853Z,83.27
2023-08-09T08:05:53.368Z,83.48
2023-08-09T08:08:20.256Z,82.26
2023-08-09T08:10:46.773Z,80.89
2023-08-09T08:13:13.655Z,80.64
2023-08-09T08:15:40.492Z,81.59
2023-08-09T08:18:08.255Z,81.82
2023-08-09T08:20:35.014Z,80.44
2023-08-09T08:23:01.634Z,78.52
2023-08-09T08:25:29.409Z,79.40
2023-08-09T08:27:56.212Z,78.14
2023-08-09T08:30:22.838Z,80.09
2023-08-09T08:32:50.490Z,78.10
2023-08-09T08:35:21.821Z,75.89
2023-08-09T08:37:50.545Z,76.71
2023-08-09T08:40:22.127Z,77.36
2023-08-09T08:42:49.986Z,75.36
2023-08-09T08:45:16.810Z,75.53
2023-08-09T08:47:45.607Z,74.68
2023-08-09T08:50:14.729Z,75.39
2023-08-09T08:52:47.443Z,74.35
2023-08-09T08:55:15.630Z,73.51
2023-08-09T08:57:44.110Z,73.85
2023-08-09T09:00:26.900Z,72.50
2023-08-09T09:02:54.860Z,71.95
2023-08-09T09:05:21.947Z,73.72
2023-08-09T09:07:51.779Z,71.12
2023-08-09T09:10:21.155Z,71.18
2023-08-09T09:12:51.500Z,69.48
2023-08-09T09:15:19.022Z,72.91
2023-08-09T09:17:46.832Z,71.55
2023-08-09T09:20:24.413Z,71.12
2023-08-09T09:22:53.020Z,69.91
2023-08-09T09:25:20.002Z,69.86
2023-08-09T09:27:50.764Z,69.67
2023-08-09T09:30:20.843Z,71.51
2023-08-09T09:32:58.280Z,69.50
2023-08-09T09:35:27.100Z,70.02
2023-08-09T09:37:55.374Z,67.65
2023-08-09T09:40:36.523Z,67.55
2023-08-09T09:43:07.586Z,66.65
2023-08-09T09:45:35.400Z,65.34
2023-08-09T09:48:03.466Z,67.84
2023-08-09T09:50:31.086Z,67.89
2023-08-09T09:52:57.834Z,67.07
2023-08-09T09:55:28.987Z,69.56
2023-08-09T09:57:57.199Z,70.77
2023-08-09T10:00:23.744Z,68.48
2023-08-09T10:02:52.903Z,67.87
2023-08-09T10:05:27.571Z,69.18
2023-08-09T10:07:59.717Z,68.16
2023-08-09T10:10:27.328Z,67.81
2023-08-09T10:12:57.494Z,66.76
2023-08-09T10:15:28.656Z,67.70
2023-08-09T10:18:17.530Z,68.76
2023-08-09T10:20:53.105Z,69.00
2023-08-09T10:23:21.536Z,70.34
2023-08-09T10:25:49.805Z,66.96
2023-08-09T10:28:16.731Z,67.69
2023-08-09T10:30:44.641Z,67.86
2023-08-09T10:33:11.394Z,67.00
2023-08-09T10:35:45.705Z,64.61
2023-08-09T10:38:26.728Z,65.52
2023-08-09T10:40:56.817Z,64.86
2023-08-09T10:43:30.957Z,64.02
2023-08-09T10:45:57.892Z,64.45
2023-08-09T10:48:29.055Z,66.58
2023-08-09T10:53:59.791Z,64.64
2023-08-09T10:56:43.085Z,65.77
2023-08-09T10:59:21.015Z,63.95
2023-08-09T11:01:49.060Z,59.93
2023-08-09T11:04:16.150Z,57.04
2023-08-09T11:06:44.525Z,62.72
2023-08-09T11:09:15.992Z,61.17
2023-08-09T11:11:45.671Z,56.58
2023-08-09T11:14:14.897Z,59.50
2023-08-09T11:16:41.754Z,57.61
2023-08-09T11:19:28.076Z,54.92
2023-08-09T11:21:57.924Z,57.06
2023-08-09T11:24:28.012Z,53.76
2023-08-09T11:26:57.041Z,53.77
2023-08-09T11:29:27.155Z,53.26
2023-08-09T11:31:55.976Z,52.12
2023-08-09T11:34:25.212Z,52.24
2023-08-09T11:36:54.933Z,52.22
2023-08-09T11:39:25.000Z,52.60
2023-08-09T11:41:52.135Z,52.63
2023-08-09T11:44:22.715Z,52.50
2023-08-09T11:46:50.457Z,50.13
2023-08-09T11:49:16.942Z,48.33
2023-08-09T11:51:43.390Z,53.20
2023-08-09T11:54:10.627Z,49.70
2023-08-09T11:56:38.235Z,49.92
2023-08-09T11:59:08.158Z,53.91
2023-08-09T12:01:38.517Z,52.10
2023-08-09T12:04:16.716Z,52.18
2023-08-09T12:06:46.063Z,48.79
2023-08-09T12:09:36.763Z,49.38
2023-08-09T12:12:15.496Z,50.25
2023-08-09T12:14:42.765Z,49.33
2023-08-09T12:17:28.208Z,49.57
2023-08-09T12:20:03.040Z,47.50
2023-08-09T12:22:30.195Z,49.36
2023-08-09T12:24:58.278Z,48.86
2023-08-09T12:27:25.762Z,45.53
2023-08-09T12:29:52.618Z,47.28
2023-08-09T12:32:19.255Z,46.66
2023-08-09T12:34:48.610Z,47.01
2023-08-09T12:37:15.522Z,47.40
2023-08-09T12:39:42.041Z,48.47
2023-08-09T12:42:08.669Z,47.55
2023-08-09T12:44:35.378Z,46.61
2023-08-09T12:47:02.184Z,50.11
2023-08-09T12:49:28.659Z,46.24
2023-08-09T12:51:58.177Z,50.44
2023-08-09T12:54:24.769Z,47.42
2023-08-09T12:56:53.890Z,48.48
2023-08-09T12:59:23.794Z,48.75
2023-08-09T13:01:50.433Z,48.71
2023-08-09T13:04:20.251Z,49.24
2023-08-09T13:06:47.090Z,48.12
2023-08-09T13:09:13.816Z,47.53
2023-08-09T13:11:41.156Z,46.50
2023-08-09T13:14:07.802Z,47.82
2023-08-09T13:16:34.521Z,48.42
2023-08-09T13:19:01.532Z,49.89
2023-08-09T13:21:28.080Z,48.54
2023-08-09T13:23:54.553Z,46.10
2023-08-09T13:26:21.232Z,47.40
2023-08-09T13:28:50.819Z,45.60
2023-08-09T13:31:17.513Z,50.21
2023-08-09T13:33:44.033Z,46.79
2023-08-09T13:36:10.520Z,47.92
2023-08-09T13:38:42.274Z,49.65
2023-08-09T13:41:10.297Z,46.30
2023-08-09T13:43:37.052Z,46.55
2023-08-09T13:46:04.502Z,48.29
2023-08-09T13:48:31.116Z,44.05
2023-08-09T13:50:57.820Z,47.97
2023-08-09T13:53:24.353Z,44.02
2023-08-09T13:55:52.478Z,44.54
2023-08-09T13:58:19.083Z,45.36
2023-08-09T14:00:47.797Z,46.34
2023-08-09T14:03:16.066Z,42.54
2023-08-09T14:05:50.726Z,47.25
2023-08-09T14:08:18.213Z,43.02
2023-08-09T14:10:45.611Z,45.73
2023-08-09T14:13:12.143Z,46.25
2023-08-09T14:15:38.702Z,43.86
2023-08-09T14:18:08.180Z,44.29
2023-08-09T14:20:36.011Z,46.05
2023-08-09T14:23:03.228Z,41.54
2023-08-09T14:25:30.052Z,44.46
2023-08-09T14:27:56.480Z,44.41
2023-08-09T14:30:23.639Z,44.29
2023-08-09T14:32:50.365Z,46.36
2023-08-09T14:35:17.416Z,45.74
2023-08-09T14:37:43.999Z,43.87
2023-08-09T14:40:11.013Z,43.12
2023-08-09T14:42:42.282Z,44.05
2023-08-09T14:45:11.269Z,45.77
2023-08-09T14:47:39.267Z,46.19
2023-08-09T14:50:07.267Z,42.90
2023-08-09T14:52:33.848Z,44.02
2023-08-09T14:55:00.353Z,44.94
2023-08-09T14:57:26.850Z,44.00
2023-08-09T14:59:53.343Z,46.46
2023-08-09T15:02:19.995Z,45.35
2023-08-09T15:04:46.996Z,44.66
2023-08-09T15:07:16.865Z,45.17
2023-08-09T15:09:44.471Z,45.26
2023-08-09T15:12:11.375Z,46.99
2023-08-09T15:14:37.898Z,46.12
2023-08-09T15:19:37.552Z,43.21
2023-08-09T15:22:04.188Z,46.37
2023-08-09T15:24:31.721Z,42.32
2023-08-09T15:26:58.528Z,44.93
2023-08-09T15:29:25.140Z,43.00
2023-08-09T15:31:51.682Z,42.54
2023-08-09T15:34:18.185Z,43.91
2023-08-09T15:36:44.744Z,44.43
2023-08-09T15:39:11.254Z,40.85
2023-08-09T15:41:37.752Z,44.70
2023-08-09T15:44:04.434Z,46.59
2023-08-09T15:46:31.071Z,47.67
2023-08-09T15:48:58.755Z,47.32
2023-08-09T15:51:25.514Z,46.20
2023-08-09T15:53:52.075Z,47.27
2023-08-09T15:56:18.668Z,45.32
2023-08-09T15:58:45.760Z,45.61
2023-08-09T16:01:14.514Z,46.17
2023-08-09T16:03:43.050Z,45.57
2023-08-09T16:06:13.626Z,45.67
2023-08-09T16:08:41.511Z,45.50
2023-08-09T16:11:08.465Z,42.99
2023-08-09T16:13:34.967Z,45.03
2023-08-09T16:16:11.656Z,45.71
2023-08-09T16:18:43.768Z,43.77
2023-08-09T16:21:10.403Z,48.08
2023-08-09T16:23:36.903Z,45.34
2023-08-09T16:26:03.429Z,48.46
2023-08-09T16:28:29.908Z,48.50
2023-08-09T16:30:56.955Z,48.63
2023-08-09T16:33:23.517Z,46.24
2023-08-09T16:35:49.950Z,45.91
2023-08-09T16:38:16.450Z,48.26
2023-08-09T16:40:43.080Z,48.12
2023-08-09T16:43:09.616Z,47.67
2023-08-09T16:45:36.215Z,47.04
2023-08-09T16:48:02.662Z,47.58
2023-08-09T16:50:29.190Z,49.42
2023-08-09T16:52:55.761Z,49.83
2023-08-09T16:55:22.933Z,48.45
2023-08-09T16:57:49.602Z,48.82
2023-08-09T17:00:16.891Z,49.45
2023-08-09T17:02:44.659Z,50.68
2023-08-09T17:05:14.902Z,49.02
2023-08-09T17:07:42.929Z,50.84
2023-08-09T17:10:09.804Z,51.22
2023-08-09T17:12:36.547Z,51.09
2023-08-09T17:15:03.718Z,51.52
2023-08-09T17:17:31.171Z,52.13
2023-08-09T17:19:57.834Z,51.46
2023-08-09T17:22:24.270Z,53.30
2023-08-09T17:24:50.754Z,52.34
2023-08-09T17:27:17.305Z,51.63
2023-08-09T17:29:43.778Z,51.11
2023-08-09T17:32:11.736Z,52.80
2023-08-09T17:34:38.263Z,51.93
2023-08-09T17:37:06.188Z,51.62
2023-08-09T17:39:32.808Z,53.43
2023-08-09T17:41:59.359Z,54.69
2023-08-09T17:44:25.882Z,53.00
2023-08-09T17:46:53.557Z,54.25
2023-08-09T17:49:20.094Z,54.58
2023-08-09T17:51:46.666Z,54.48
2023-08-09T17:54:13.174Z,55.69
2023-08-09T17:56:39.800Z,55.07
2023-08-09T17:59:06.829Z,54.85
2023-08-09T18:01:33.566Z,54.15
2023-08-09T18:04:00.031Z,53.59
2023-08-09T18:06:26.792Z,55.40
2023-08-09T18:08:53.801Z,54.84
2023-08-09T18:11:23.093Z,55.47
2023-08-09T18:13:49.552Z,57.98
2023-08-09T18:16:16.866Z,56.90
2023-08-09T18:18:43.426Z,57.33
2023-08-09T18:21:09.903Z,54.67
2023-08-09T18:23:37.740Z,57.26
2023-08-09T18:26:04.315Z,57.07
2023-08-09T18:28:32.870Z,55.76
2023-08-09T18:30:59.275Z,56.86
2023-08-09T18:33:26.663Z,55.55
2023-08-09T18:35:57.330Z,55.78
2023-08-09T18:38:23.965Z,56.92
2023-08-09T18:40:50.456Z,57.24
2023-08-09T18:43:16.882Z,58.73
2023-08-09T18:45:43.474Z,58.80
2023-08-09T18:48:10.041Z,57.81
2023-08-09T18:50:37.590Z,60.33
2023-08-09T18:53:05.104Z,59.81
2023-08-09T18:55:31.800Z,58.07
2023-08-09T18:57:58.705Z,57.19
2023-08-09T19:00:26.083Z,61.70
2023-08-09T19:02:52.898Z,59.68
2023-08-09T19:05:22.201Z,61.50
2023-08-09T19:07:49.693Z,59.92
2023-08-09T19:10:16.177Z,61.28
2023-08-09T19:12:42.847Z,61.13
2023-08-09T19:15:09.729Z,62.40
2023-08-09T19:17:36.409Z,62.04
2023-08-09T19:20:05.207Z,63.40
2023-08-09T19:22:31.935Z,62.46
2023-08-09T19:24:58.420Z,63.53
2023-08-09T19:27:25.442Z,64.16
2023-08-09T19:30:15.246Z,64.39
2023-08-09T19:32:41.933Z,65.32
2023-08-09T19:35:09.851Z,65.85
2023-08-09T19:37:37.843Z,63.69
2023-08-09T19:40:06.155Z,64.47
2023-08-09T19:42:36.203Z,65.37
2023-08-09T19:45:03.896Z,65.16
2023-08-09T19:47:32.481Z,64.64
2023-08-09T19:49:59.050Z,66.26
2023-08-09T19:52:25.560Z,64.79
2023-08-09T19:54:52.076Z,66.26
2023-08-09T19:57:18.645Z,64.46
2023-08-09T19:59:45.674Z,65.79
2023-08-09T20:02:12.282Z,66.92
2023-08-09T20:04:39.255Z,65.50
2023-08-09T20:07:06.265Z,67.19
2023-08-09T20:09:33.082Z,67.69
2023-08-09T20:11:59.840Z,68.17
2023-08-09T20:14:26.387Z,67.97
2023-08-09T20:16:52.979Z,68.66
2023-08-09T20:19:19.728Z,68.16
2023-08-09T20:21:46.384Z,69.13
2023-08-09T20:24:33.375Z,69.77
2023-08-09T20:26:59.933Z,69.79
2023-08-09T20:29:26.416Z,70.39
2023-08-09T20:31:52.893Z,70.67
2023-08-09T20:34:19.380Z,70.55
2023-08-09T20:36:45.956Z,70.79
2023-08-09T20:39:13.123Z,71.03
2023-08-09T20:41:39.640Z,71.24
2023-08-09T20:44:06.298Z,71.40
2023-08-09T20:46:32.851Z,72.00
2023-08-09T20:48:59.326Z,71.85
2023-08-09T20:51:25.816Z,72.12
2023-08-09T20:53:52.364Z,71.88
2023-08-09T20:56:19.147Z,72.20
2023-08-09T20:58:46.113Z,72.29
2023-08-09T21:01:13.892Z,72.38
2023-08-09T21:03:40.470Z,72.49
2023-08-09T21:06:07.212Z,73.41
2023-08-09T21:08:33.769Z,74.03
2023-08-09T21:11:00.252Z,73.83
2023-08-09T21:13:26.791Z,73.75
2023-08-09T21:15:53.495Z,74.23
2023-08-09T21:18:20.247Z,73.79
2023-08-09T21:20:49.266Z,74.21
2023-08-09T21:23:16.054Z,73.72
2023-08-09T21:25:43.394Z,73.83
2023-08-09T21:28:11.964Z,74.70
2023-08-09T21:30:39.484Z,75.15
2023-08-09T21:33:09.409Z,74.27
2023-08-09T21:35:36.965Z,74.65
2023-08-09T21:38:03.680Z,74.88
2023-08-09T21:40:31.608Z,74.78
2023-08-09T21:42:58.081Z,74.69
2023-08-09T21:45:24.520Z,75.40
2023-08-09T21:47:51.029Z,75.45
2023-08-09T21:50:17.549Z,75.79
2023-08-09T21:52:44.326Z,75.78
2023-08-09T21:55:10.791Z,75.26
2023-08-09T21:57:37.224Z,75.30
2023-08-09T22:00:04.438Z,75.32
2023-08-09T22:02:31.040Z,75.74
2023-08-09T22:04:57.578Z,75.42
2023-08-09T22:07:24.822Z,75.91
2023-08-09T22:09:51.265Z,75.81
2023-08-09T22:12:21.706Z,75.42
2023-08-09T22:14:48.201Z,75.41
2023-08-09T22:17:14.735Z,76.25
2023-08-09T22:19:41.308Z,75.93
2023-08-09T22:24:37.287Z,77.27
2023-08-09T22:27:03.794Z,77.77
2023-08-09T22:29:31.600Z,78.62
2023-08-09T22:32:00.236Z,77.62
2023-08-09T22:34:26.830Z,78.90
2023-08-09T22:36:53.281Z,77.98
2023-08-09T22:39:19.782Z,76.90
2023-08-09T22:41:46.289Z,77.13
2023-08-09T22:44:12.737Z,77.13
2023-08-09T22:46:39.243Z,76.89
2023-08-09T22:49:05.770Z,76.84
2023-08-09T22:51:32.210Z,78.16
2023-08-09T22:53:58.623Z,77.72
2023-08-09T22:56:25.208Z,77.83
2023-08-09T22:58:52.249Z,76.72
2023-08-09T23:01:18.815Z,77.25
2023-08-09T23:03:45.417Z,77.89
2023-08-09T23:06:12.043Z,78.44
2023-08-09T23:08:38.763Z,77.16
2023-08-09T23:11:06.698Z,79.40
2023-08-09T23:13:33.297Z,79.69
2023-08-09T23:16:00.681Z,78.85
2023-08-09T23:18:27.275Z,78.09
2023-08-09T23:20:53.791Z,78.68
2023-08-09T23:23:20.664Z,78.41
2023-08-09T23:25:47.289Z,78.75
2023-08-09T23:28:14.109Z,78.21
2023-08-09T23:30:43.471Z,77.71
2023-08-09T23:33:10.050Z,77.82
2023-08-09T23:35:36.507Z,79.05
2023-08-09T23:38:02.955Z,79.21
2023-08-09T23:40:29.455Z,78.98
2023-08-09T23:42:56.049Z,78.25
2023-08-09T23:45:22.727Z,78.37
2023-08-09T23:47:52.046Z,78.51
2023-08-09T23:50:18.586Z,77.53
2023-08-09T23:52:45.019Z,79.06
2023-08-09T23:55:11.533Z,78.51
2023-08-09T23:57:38.136Z,77.44
